createdAt,value
2019-03-26T00:02:24.690Z,56.43
2019-03-26T00:04:54.735Z,52.70
2019-03-26T00:07:24.727Z,52.47
2019-03-26T00:09:54.687Z,53.00
2019-03-26T00:12:24.692Z,48.03
2019-03-26T00:14:54.708Z,48.83
2019-03-26T00:17:24.694Z,51.50
2019-03-26T00:19:54.806Z,49.80
2019-03-26T00:22:24.817Z,44.93
2019-03-26T00:24:54.812Z,39.10
2019-03-26T00:27:24.885Z,45.07
2019-03-26T00:29:54.948Z,44.10
2019-03-26T00:32:25.202Z,48.53
2019-03-26T00:34:55.204Z,44.77
2019-03-26T00:37:25.223Z,37.67
2019-03-26T00:39:55.224Z,32.17
2019-03-26T00:42:25.245Z,37.13
2019-03-26T00:44:55.343Z,43.87
2019-03-26T00:47:25.383Z,39.17
2019-03-26T00:49:55.400Z,39.73
2019-03-26T00:52:25.446Z,35.83
2019-03-26T00:54:55.455Z,38.93
2019-03-26T00:57:25.470Z,33.10
2019-03-26T00:59:55.534Z,32.00
2019-03-26T01:02:25.622Z,34.47
2019-03-26T01:04:55.629Z,32.73
2019-03-26T01:07:25.684Z,35.40
2019-03-26T01:09:55.747Z,38.33
2019-03-26T01:12:26.101Z,38.17
2019-03-26T01:14:56.072Z,35.73
2019-03-26T01:17:26.114Z,39.40
2019-03-26T01:19:56.106Z,31.90
2019-03-26T01:22:26.142Z,41.73
2019-03-26T01:24:56.176Z,29.50
2019-03-26T01:27:26.170Z,38.27
2019-03-26T01:29:56.549Z,40.20
2019-03-26T01:32:26.676Z,41.77
2019-03-26T01:34:56.668Z,31.47
2019-03-26T01:37:26.660Z,30.80
2019-03-26T01:39:56.658Z,40.33
2019-03-26T01:42:27.126Z,33.23
2019-03-26T01:44:57.118Z,35.67
2019-03-26T01:47:27.131Z,29.30
2019-03-26T01:49:57.172Z,30.73
2019-03-26T01:52:27.171Z,30.53
2019-03-26T01:54:57.352Z,34.97
2019-03-26T01:57:27.790Z,33.13
2019-03-26T01:59:57.920Z,33.67
2019-03-26T02:02:27.993Z,43.87
2019-03-26T02:05:00.139Z,44.67
2019-03-26T02:07:30.097Z,40.50
2019-03-26T02:10:00.077Z,44.90
2019-03-26T02:12:30.125Z,39.70
2019-03-26T02:15:00.371Z,32.13
2019-03-26T02:17:30.423Z,36.83
2019-03-26T02:20:00.433Z,40.07
2019-03-26T02:22:30.502Z,36.03
2019-03-26T02:25:00.509Z,35.20
2019-03-26T02:27:30.510Z,30.50
2019-03-26T02:30:00.562Z,41.50
2019-03-26T02:32:30.601Z,29.90
2019-03-26T02:35:16.363Z,33.37
2019-03-26T02:37:32.368Z,32.77
2019-03-26T02:40:02.365Z,34.40
2019-03-26T02:42:32.379Z,27.60
2019-03-26T02:45:02.388Z,31.43
2019-03-26T02:47:32.382Z,36.50
2019-03-26T02:50:02.378Z,32.03
2019-03-26T02:52:32.430Z,25.10
2019-03-26T02:55:02.440Z,23.90
2019-03-26T02:57:32.426Z,30.60
2019-03-26T03:00:02.449Z,38.97
2019-03-26T03:02:32.457Z,28.87
2019-03-26T03:05:02.457Z,30.17
2019-03-26T03:07:32.557Z,29.30
2019-03-26T03:10:02.518Z,26.07
2019-03-26T03:12:32.510Z,24.80
2019-03-26T03:15:02.559Z,31.00
2019-03-26T03:17:32.611Z,29.40
2019-03-26T03:20:02.660Z,23.43
2019-03-26T03:22:32.732Z,25.77
2019-03-26T03:25:02.723Z,32.47
2019-03-26T03:27:32.741Z,27.70
2019-03-26T03:30:02.832Z,29.13
2019-03-26T03:32:32.859Z,29.57
2019-03-26T03:35:03.231Z,24.90
2019-03-26T03:37:33.270Z,29.20
2019-03-26T03:40:03.295Z,27.87
2019-03-26T03:42:33.266Z,27.37
2019-03-26T03:45:03.304Z,29.17
2019-03-26T03:47:37.330Z,28.97
2019-03-26T03:50:08.393Z,24.17
2019-03-26T03:52:42.521Z,27.77
2019-03-26T03:55:13.276Z,26.97
2019-03-26T03:57:43.278Z,26.57
2019-03-26T04:00:34.455Z,34.30
2019-03-26T04:03:04.627Z,27.07
2019-03-26T04:05:34.658Z,23.60
2019-03-26T04:08:04.700Z,25.37
2019-03-26T04:10:34.769Z,28.77
2019-03-26T04:13:04.837Z,33.47
2019-03-26T04:15:35.412Z,29.90
2019-03-26T04:18:05.746Z,25.70
2019-03-26T04:20:35.844Z,29.90
2019-03-26T04:23:07.191Z,26.90
2019-03-26T04:25:37.187Z,29.27
2019-03-26T04:28:07.225Z,28.87
2019-03-26T04:30:37.254Z,32.87
2019-03-26T04:33:07.443Z,25.00
2019-03-26T04:35:37.428Z,25.90
2019-03-26T04:38:07.469Z,30.47
2019-03-26T04:40:37.495Z,30.70
2019-03-26T04:43:07.481Z,48.57
2019-03-26T04:45:37.520Z,38.90
2019-03-26T04:48:07.578Z,34.70
2019-03-26T04:50:37.698Z,32.53
2019-03-26T04:53:07.662Z,31.80
2019-03-26T04:55:37.718Z,26.47
2019-03-26T04:58:07.792Z,34.80
2019-03-26T05:00:37.781Z,35.37
2019-03-26T05:03:07.805Z,34.93
2019-03-26T05:05:37.828Z,33.97
2019-03-26T05:08:07.884Z,40.47
2019-03-26T05:10:37.870Z,32.20
2019-03-26T05:13:07.869Z,37.43
2019-03-26T05:15:37.904Z,36.00
2019-03-26T05:18:07.933Z,34.57
2019-03-26T05:20:38.085Z,40.33
2019-03-26T05:23:08.076Z,40.63
2019-03-26T05:25:38.103Z,36.93
2019-03-26T05:28:08.113Z,34.30
2019-03-26T05:30:38.118Z,47.83
2019-03-26T05:33:08.261Z,43.13
2019-03-26T05:35:38.252Z,43.63
2019-03-26T05:38:08.267Z,41.03
2019-03-26T05:40:38.270Z,57.07
2019-03-26T05:43:08.313Z,45.63
2019-03-26T05:45:38.281Z,48.90
2019-03-26T05:48:08.280Z,40.30
2019-03-26T05:50:38.339Z,37.50
2019-03-26T05:53:08.300Z,39.03
2019-03-26T05:55:38.376Z,38.93
2019-03-26T05:58:08.434Z,38.67
2019-03-26T06:00:38.435Z,38.10
2019-03-26T06:03:08.436Z,37.07
2019-03-26T06:05:38.501Z,36.87
2019-03-26T06:08:08.520Z,34.93
2019-03-26T06:10:38.531Z,29.90
2019-03-26T06:13:08.568Z,32.80
2019-03-26T06:15:38.567Z,41.00
2019-03-26T06:18:08.575Z,43.10
2019-03-26T06:20:38.558Z,48.67
2019-03-26T06:23:08.517Z,39.63
2019-03-26T06:25:38.551Z,36.73
2019-03-26T06:28:08.533Z,39.67
2019-03-26T06:30:38.537Z,33.07
2019-03-26T06:33:08.571Z,40.00
2019-03-26T06:35:38.540Z,35.70
2019-03-26T06:38:08.504Z,35.67
2019-03-26T06:40:38.545Z,40.23
2019-03-26T06:43:08.543Z,44.60
2019-03-26T06:45:38.547Z,33.03
2019-03-26T06:48:08.583Z,36.70
2019-03-26T06:50:38.646Z,27.10
2019-03-26T06:53:08.632Z,38.63
2019-03-26T06:55:38.676Z,43.03
2019-03-26T06:58:08.661Z,55.80
2019-03-26T07:00:38.689Z,54.43
2019-03-26T07:03:08.679Z,43.23
2019-03-26T07:05:38.791Z,36.03
2019-03-26T07:08:08.869Z,42.07
2019-03-26T07:10:38.850Z,47.47
2019-03-26T07:13:08.843Z,31.23
2019-03-26T07:15:38.867Z,22.43
2019-03-26T07:18:08.846Z,32.00
2019-03-26T07:20:38.900Z,32.07
2019-03-26T07:23:08.888Z,37.97
2019-03-26T07:25:39.718Z,42.50
2019-03-26T07:28:09.740Z,36.90
2019-03-26T07:30:41.366Z,33.00
2019-03-26T07:33:12.079Z,40.90
2019-03-26T07:35:42.313Z,45.83
2019-03-26T07:38:12.356Z,43.47
2019-03-26T07:40:42.384Z,53.67
2019-03-26T07:43:12.400Z,54.20
2019-03-26T07:45:42.436Z,61.87
2019-03-26T07:48:12.454Z,59.67
2019-03-26T07:50:42.505Z,53.57
2019-03-26T07:53:12.531Z,46.50
2019-03-26T07:55:43.873Z,54.80
2019-03-26T07:58:14.227Z,54.20
2019-03-26T08:00:44.237Z,41.13
2019-03-26T08:03:14.254Z,44.33
2019-03-26T08:05:44.292Z,33.07
2019-03-26T08:08:14.314Z,41.53
2019-03-26T08:10:44.312Z,42.40
2019-03-26T08:13:14.362Z,34.17
2019-03-26T08:15:44.385Z,36.67
2019-03-26T08:18:14.406Z,43.37
2019-03-26T08:20:44.380Z,30.80
2019-03-26T08:23:14.378Z,54.00
2019-03-26T08:25:44.391Z,47.57
2019-03-26T08:28:14.393Z,45.37
2019-03-26T08:30:44.380Z,59.03
2019-03-26T08:33:14.439Z,34.80
2019-03-26T08:35:44.449Z,45.33
2019-03-26T08:38:14.440Z,41.47
2019-03-26T08:40:44.451Z,28.03
2019-03-26T08:43:14.518Z,26.40
2019-03-26T08:45:44.518Z,38.03
2019-03-26T08:48:14.500Z,29.70
2019-03-26T08:50:44.521Z,24.70
2019-03-26T08:53:14.579Z,32.50
2019-03-26T08:55:44.573Z,30.20
2019-03-26T08:58:14.658Z,30.73
2019-03-26T09:00:44.648Z,30.03
2019-03-26T09:03:14.634Z,33.83
2019-03-26T09:05:44.717Z,22.97
2019-03-26T09:08:24.785Z,24.60
2019-03-26T09:10:51.657Z,27.97
2019-03-26T09:13:18.242Z,28.50
2019-03-26T09:15:48.239Z,36.00
2019-03-26T09:18:18.298Z,24.73
2019-03-26T09:20:48.286Z,36.43
2019-03-26T09:23:18.288Z,34.57
2019-03-26T09:25:48.329Z,32.60
2019-03-26T09:28:18.325Z,29.80
2019-03-26T09:30:48.305Z,30.60
2019-03-26T09:33:18.330Z,30.80
2019-03-26T09:35:48.331Z,28.53
2019-03-26T09:38:18.353Z,26.73
2019-03-26T09:40:48.363Z,29.80
2019-03-26T09:43:18.328Z,35.63
2019-03-26T09:45:48.370Z,33.60
2019-03-26T09:48:18.335Z,29.83
2019-03-26T09:50:48.335Z,34.43
2019-03-26T09:53:18.345Z,26.27
2019-03-26T09:55:48.324Z,26.50
2019-03-26T09:58:18.329Z,29.80
2019-03-26T10:00:48.440Z,38.37
2019-03-26T10:03:18.632Z,28.10
2019-03-26T10:05:48.643Z,28.93
2019-03-26T10:08:18.648Z,26.43
2019-03-26T10:10:48.650Z,28.23
2019-03-26T10:13:18.676Z,26.57
2019-03-26T10:15:48.654Z,30.50
2019-03-26T10:18:18.722Z,33.43
2019-03-26T10:20:48.760Z,32.20
2019-03-26T10:23:18.904Z,32.73
2019-03-26T10:25:49.178Z,24.23
2019-03-26T10:28:19.346Z,29.30
2019-03-26T10:30:49.467Z,25.80
2019-03-26T10:33:20.063Z,26.03
2019-03-26T10:35:50.105Z,25.80
2019-03-26T10:38:20.301Z,25.93
2019-03-26T10:40:50.346Z,35.37
2019-03-26T10:43:20.370Z,23.77
2019-03-26T10:45:50.500Z,26.27
2019-03-26T10:48:20.537Z,29.23
2019-03-26T10:50:50.608Z,27.00
2019-03-26T10:53:20.646Z,29.90
2019-03-26T10:55:50.661Z,26.93
2019-03-26T10:58:20.707Z,25.20
2019-03-26T11:00:50.735Z,24.13
2019-03-26T11:03:20.816Z,28.70
2019-03-26T11:05:50.921Z,26.63
2019-03-26T11:08:20.936Z,21.30
2019-03-26T11:10:50.992Z,20.20
2019-03-26T11:13:20.977Z,21.37
2019-03-26T11:15:50.969Z,22.67
2019-03-26T11:18:20.989Z,23.13
2019-03-26T11:21:01.770Z,17.87
2019-03-26T11:23:22.689Z,18.77
2019-03-26T11:25:52.695Z,18.40
2019-03-26T11:28:22.714Z,23.53
2019-03-26T11:30:52.734Z,21.60
2019-03-26T11:33:22.757Z,19.57
2019-03-26T11:35:52.739Z,20.20
2019-03-26T11:38:22.741Z,19.00
2019-03-26T11:40:52.781Z,22.17
2019-03-26T11:43:22.793Z,17.73
2019-03-26T11:45:52.781Z,22.03
2019-03-26T11:48:22.782Z,17.93
2019-03-26T11:50:52.839Z,18.03
2019-03-26T11:53:22.819Z,19.53
2019-03-26T11:55:52.809Z,19.40
2019-03-26T11:58:30.422Z,18.00
2019-03-26T12:00:54.577Z,20.80
2019-03-26T12:03:24.551Z,27.20
2019-03-26T12:05:54.619Z,25.03
2019-03-26T12:08:24.650Z,31.80
2019-03-26T12:10:54.664Z,21.47
2019-03-26T12:13:24.685Z,22.33
2019-03-26T12:15:54.699Z,27.27
2019-03-26T12:18:26.733Z,25.47
2019-03-26T12:20:56.779Z,28.53
2019-03-26T12:23:26.808Z,26.43
2019-03-26T12:25:56.924Z,34.03
2019-03-26T12:28:26.951Z,32.97
2019-03-26T12:30:56.961Z,29.97
2019-03-26T12:33:26.951Z,25.87
2019-03-26T12:35:57.978Z,31.07
2019-03-26T12:38:28.823Z,21.23
2019-03-26T12:40:58.806Z,22.63
2019-03-26T12:43:28.818Z,13.77
2019-03-26T12:46:01.697Z,15.47
2019-03-26T12:48:30.450Z,12.87
2019-03-26T12:51:00.482Z,9.53
2019-03-26T12:53:30.453Z,9.90
2019-03-26T12:56:00.434Z,8.47
2019-03-26T12:58:32.192Z,14.27
2019-03-26T13:01:02.105Z,10.90
2019-03-26T13:03:32.110Z,8.43
2019-03-26T13:06:02.137Z,11.80
2019-03-26T13:08:32.122Z,9.03
2019-03-26T13:11:02.125Z,11.10
2019-03-26T13:13:32.081Z,10.03
2019-03-26T13:16:02.148Z,8.67
2019-03-26T13:18:32.127Z,6.87
2019-03-26T13:21:02.175Z,9.33
2019-03-26T13:23:32.170Z,8.20
2019-03-26T13:26:02.172Z,7.87
2019-03-26T13:28:32.222Z,9.57
2019-03-26T13:31:02.247Z,15.07
2019-03-26T13:33:32.232Z,10.10
2019-03-26T13:36:02.256Z,6.37
2019-03-26T13:38:32.307Z,18.00
2019-03-26T13:41:02.368Z,13.47
2019-03-26T13:43:32.403Z,11.33
2019-03-26T13:46:02.806Z,13.00
2019-03-26T13:48:32.895Z,11.60
2019-03-26T13:51:05.028Z,12.03
2019-03-26T13:53:35.097Z,9.70
2019-03-26T13:56:05.401Z,15.03
2019-03-26T13:58:35.499Z,8.97
2019-03-26T14:01:05.504Z,14.57
2019-03-26T14:03:35.873Z,11.30
2019-03-26T14:06:06.515Z,13.90
2019-03-26T14:08:36.494Z,15.17
2019-03-26T14:11:06.578Z,13.10
2019-03-26T14:13:36.636Z,17.87
2019-03-26T14:16:06.685Z,13.30
2019-03-26T14:18:36.695Z,10.50
2019-03-26T14:21:06.737Z,14.73
2019-03-26T14:23:36.759Z,12.47
2019-03-26T14:26:06.806Z,16.57
2019-03-26T14:28:36.862Z,14.13
2019-03-26T14:31:06.858Z,14.07
2019-03-26T14:33:36.838Z,8.67
2019-03-26T14:36:06.847Z,16.40
2019-03-26T14:38:36.965Z,14.10
2019-03-26T14:41:07.128Z,11.00
2019-03-26T14:43:37.107Z,11.90
2019-03-26T14:46:07.090Z,12.77
2019-03-26T14:48:37.116Z,11.57
2019-03-26T14:51:07.125Z,15.43
2019-03-26T14:53:37.151Z,11.83
2019-03-26T14:56:07.185Z,15.13
2019-03-26T14:58:37.198Z,4.00
2019-03-26T15:01:07.168Z,3.27
2019-03-26T15:03:37.196Z,3.00
2019-03-26T15:06:07.224Z,4.00
2019-03-26T15:08:37.261Z,3.40
2019-03-26T15:11:08.532Z,3.80
2019-03-26T15:13:38.636Z,5.37
2019-03-26T15:16:08.671Z,5.27
2019-03-26T15:18:38.650Z,7.27
2019-03-26T15:21:08.617Z,8.83
2019-03-26T15:23:38.652Z,7.70
2019-03-26T15:26:08.617Z,8.07
2019-03-26T15:28:40.934Z,9.43
2019-03-26T15:31:10.962Z,6.57
2019-03-26T15:33:40.954Z,7.97
2019-03-26T15:36:10.980Z,8.23
2019-03-26T15:38:41.030Z,8.13
2019-03-26T15:41:20.978Z,76.50
2019-03-26T15:43:42.647Z,64.50
2019-03-26T15:46:12.693Z,79.33
2019-03-26T15:48:42.678Z,41.37
2019-03-26T15:51:12.979Z,56.60
2019-03-26T15:53:43.029Z,27.73
2019-03-26T15:56:13.018Z,21.80
2019-03-26T15:58:43.032Z,26.03
2019-03-26T16:01:13.059Z,23.47
2019-03-26T16:03:43.115Z,15.57
2019-03-26T16:06:13.088Z,16.60
2019-03-26T16:08:43.137Z,11.40
2019-03-26T16:11:13.234Z,17.77
2019-03-26T16:13:43.240Z,19.77
2019-03-26T16:16:13.888Z,16.20
2019-03-26T16:18:43.854Z,16.80
2019-03-26T16:21:13.838Z,14.83
2019-03-26T16:23:43.912Z,22.67
2019-03-26T16:26:13.927Z,21.97
2019-03-26T16:28:43.903Z,19.73
2019-03-26T16:31:13.982Z,18.23
2019-03-26T16:33:44.029Z,13.93
2019-03-26T16:36:14.061Z,13.77
2019-03-26T16:38:44.100Z,15.27
2019-03-26T16:41:14.127Z,10.53
2019-03-26T16:43:44.148Z,14.73
2019-03-26T16:46:14.171Z,11.00
2019-03-26T16:48:44.171Z,17.23
2019-03-26T16:51:14.170Z,14.57
2019-03-26T16:53:44.198Z,12.67
2019-03-26T16:56:14.177Z,19.27
2019-03-26T16:58:44.167Z,20.10
2019-03-26T17:01:14.189Z,17.50
2019-03-26T17:03:44.180Z,19.27
2019-03-26T17:06:14.271Z,16.67
2019-03-26T17:08:44.360Z,35.90
2019-03-26T17:11:14.549Z,26.70
2019-03-26T17:13:44.569Z,26.03
2019-03-26T17:16:14.602Z,26.43
2019-03-26T17:18:45.682Z,26.93
2019-03-26T17:21:18.241Z,23.40
2019-03-26T17:23:47.352Z,24.70
2019-03-26T17:26:17.423Z,21.87
2019-03-26T17:28:47.485Z,24.47
2019-03-26T17:31:17.505Z,25.83
2019-03-26T17:33:47.489Z,25.23
2019-03-26T17:36:17.813Z,21.13
2019-03-26T17:38:47.962Z,29.87
2019-03-26T17:41:17.971Z,30.20
2019-03-26T17:43:47.960Z,26.47
2019-03-26T17:46:17.989Z,22.60
2019-03-26T17:48:47.989Z,20.60
2019-03-26T17:51:18.026Z,27.13
2019-03-26T17:53:48.013Z,28.87
2019-03-26T17:56:18.035Z,26.13
2019-03-26T17:58:48.021Z,25.70
2019-03-26T18:01:18.080Z,20.70
2019-03-26T18:03:48.685Z,32.20
2019-03-26T18:06:18.710Z,18.33
2019-03-26T18:08:48.699Z,93.03
2019-03-26T18:11:18.777Z,45.53
2019-03-26T18:13:48.774Z,17.93
2019-03-26T18:16:18.807Z,39.20
2019-03-26T18:18:48.839Z,24.67
2019-03-26T18:21:18.949Z,16.97
2019-03-26T18:23:48.944Z,13.80
2019-03-26T18:26:18.998Z,15.23
2019-03-26T18:28:49.019Z,15.57
2019-03-26T18:31:19.019Z,15.30
2019-03-26T18:33:49.122Z,14.57
2019-03-26T18:36:19.145Z,12.37
2019-03-26T18:38:49.153Z,12.87
2019-03-26T18:41:19.164Z,11.43
2019-03-26T18:43:49.184Z,13.27
2019-03-26T18:46:19.220Z,12.17
2019-03-26T18:48:49.228Z,22.83
2019-03-26T18:51:19.278Z,17.90
2019-03-26T18:53:49.343Z,43.80
2019-03-26T18:56:19.357Z,16.83
2019-03-26T18:58:49.370Z,17.03
2019-03-26T19:01:20.402Z,18.83
2019-03-26T19:03:50.387Z,18.87
2019-03-26T19:06:20.464Z,18.73
2019-03-26T19:08:50.487Z,19.53
2019-03-26T19:11:20.523Z,16.63
2019-03-26T19:13:50.558Z,15.17
2019-03-26T19:16:20.533Z,21.80
2019-03-26T19:18:50.537Z,16.70
2019-03-26T19:21:20.583Z,16.27
2019-03-26T19:24:03.024Z,18.63
2019-03-26T19:26:22.290Z,14.70
2019-03-26T19:28:52.306Z,18.07
2019-03-26T19:31:22.327Z,14.97
2019-03-26T19:33:52.512Z,16.70
2019-03-26T19:36:22.514Z,19.23
2019-03-26T19:38:52.545Z,18.43
2019-03-26T19:41:22.566Z,24.00
2019-03-26T19:43:52.623Z,21.43
2019-03-26T19:46:22.590Z,20.03
2019-03-26T19:48:52.608Z,16.10
2019-03-26T19:51:22.659Z,32.10
2019-03-26T19:53:52.686Z,26.67
2019-03-26T19:56:22.679Z,22.73
2019-03-26T19:58:52.733Z,30.43
2019-03-26T20:01:22.728Z,26.10
2019-03-26T20:03:52.729Z,24.07
2019-03-26T20:06:22.793Z,20.93
2019-03-26T20:08:52.884Z,36.83
2019-03-26T20:11:22.913Z,23.57
2019-03-26T20:13:53.279Z,26.17
2019-03-26T20:16:23.308Z,24.97
2019-03-26T20:18:53.338Z,28.37
2019-03-26T20:21:23.366Z,44.53
2019-03-26T20:23:53.397Z,20.83
2019-03-26T20:26:23.431Z,20.73
2019-03-26T20:28:53.427Z,20.67
2019-03-26T20:31:23.487Z,23.23
2019-03-26T20:33:53.485Z,16.83
2019-03-26T20:36:23.465Z,18.90
2019-03-26T20:38:53.519Z,16.50
2019-03-26T20:41:23.514Z,15.37
2019-03-26T20:43:53.544Z,17.20
2019-03-26T20:46:23.584Z,22.77
2019-03-26T20:48:53.577Z,13.93
2019-03-26T20:51:23.598Z,18.07
2019-03-26T20:53:53.631Z,21.60
2019-03-26T20:56:23.962Z,20.13
2019-03-26T20:58:53.966Z,17.87
2019-03-26T21:01:24.015Z,14.87
2019-03-26T21:03:54.072Z,20.63
2019-03-26T21:06:24.665Z,35.17
2019-03-26T21:08:55.074Z,24.63
2019-03-26T21:11:25.069Z,18.57
2019-03-26T21:13:55.147Z,23.13
2019-03-26T21:16:25.230Z,21.60
2019-03-26T21:18:55.249Z,21.07
2019-03-26T21:21:25.282Z,15.20
2019-03-26T21:23:55.352Z,16.57
2019-03-26T21:26:25.344Z,20.50
2019-03-26T21:28:55.337Z,14.67
2019-03-26T21:31:25.452Z,13.87
2019-03-26T21:33:55.569Z,12.57
2019-03-26T21:36:25.576Z,11.97
2019-03-26T21:38:55.668Z,12.17
2019-03-26T21:41:25.691Z,10.50
2019-03-26T21:44:04.315Z,22.10
2019-03-26T21:46:28.212Z,16.87
2019-03-26T21:48:58.213Z,15.10
2019-03-26T21:51:28.221Z,10.33
2019-03-26T21:53:58.334Z,17.17
2019-03-26T21:56:28.350Z,10.37
2019-03-26T21:58:58.349Z,13.30
2019-03-26T22:01:28.400Z,13.83
2019-03-26T22:03:58.508Z,13.13
2019-03-26T22:06:28.546Z,13.33
2019-03-26T22:08:58.596Z,16.30
2019-03-26T22:11:28.654Z,12.97
2019-03-26T22:13:58.670Z,8.73
2019-03-26T22:16:28.717Z,17.47
2019-03-26T22:18:58.805Z,9.97
2019-03-26T22:21:28.829Z,10.37
2019-03-26T22:23:58.811Z,9.83
2019-03-26T22:26:28.851Z,11.60
2019-03-26T22:28:58.952Z,13.80
2019-03-26T22:31:28.956Z,11.43
2019-03-26T22:33:58.991Z,11.97
2019-03-26T22:36:29.237Z,12.23
2019-03-26T22:38:59.343Z,11.70
2019-03-26T22:41:29.296Z,9.90
2019-03-26T22:43:59.324Z,12.37
2019-03-26T22:46:29.359Z,10.77
2019-03-26T22:48:59.386Z,11.83
2019-03-26T22:51:29.462Z,12.00
2019-03-26T22:53:59.477Z,14.13
2019-03-26T22:56:29.621Z,15.20
2019-03-26T22:58:59.646Z,10.43
2019-03-26T23:01:29.878Z,14.63
2019-03-26T23:03:59.897Z,13.83
2019-03-26T23:06:29.975Z,13.53
2019-03-26T23:09:00.087Z,12.13
2019-03-26T23:11:30.217Z,10.03
2019-03-26T23:14:00.277Z,7.33
2019-03-26T23:16:30.370Z,9.03
2019-03-26T23:19:00.447Z,8.80
2019-03-26T23:21:30.481Z,7.87
2019-03-26T23:24:01.333Z,11.47
2019-03-26T23:26:31.333Z,11.80
2019-03-26T23:29:01.408Z,10.50
2019-03-26T23:31:31.457Z,10.43
2019-03-26T23:34:01.426Z,9.97
2019-03-26T23:36:31.479Z,13.77
2019-03-26T23:39:01.496Z,11.03
2019-03-26T23:41:31.495Z,11.10
2019-03-26T23:44:01.536Z,14.37
2019-03-26T23:46:31.549Z,12.87
2019-03-26T23:49:01.627Z,15.10
2019-03-26T23:51:31.744Z,12.27
2019-03-26T23:54:01.777Z,8.90
2019-03-26T23:56:31.848Z,8.97
2019-03-26T23:59:01.872Z,13.00
